sensor_id;sensor_type;location;lat;lon;timestamp;temperature;humidity
45807;DHT22;31507;51.494;7.518;2023-04-15T00:02:15;4.30;99.90
45807;DHT22;31507;51.494;7.518;2023-04-15T00:04:40;4.50;99.90
45807;DHT22;31507;51.494;7.518;2023-04-15T00:07:06;4.50;99.90
45807;DHT22;31507;51.494;7.518;2023-04-15T00:09:32;4.50;99.90
45807;DHT22;31507;51.494;7.518;2023-04-15T00:11:58;4.60;99.90
45807;DHT22;31507;51.494;7.518;2023-04-15T00:14:24;4.60;99.90
45807;DHT22;31507;51.494;7.518;2023-04-15T00:16:50;4.60;99.90
45807;DHT22;31507;51.494;7.518;2023-04-15T00:19:20;4.70;99.90
45807;DHT22;31507;51.494;7.518;2023-04-15T00:21:46;4.60;99.90
45807;DHT22;31507;51.494;7.518;2023-04-15T00:24:12;4.60;99.90
45807;DHT22;31507;51.494;7.518;2023-04-15T00:26:38;4.50;99.90
45807;DHT22;31507;51.494;7.518;2023-04-15T00:29:05;4.60;99.90
45807;DHT22;31507;51.494;7.518;2023-04-15T00:31:31;4.60;99.90
45807;DHT22;31507;51.494;7.518;2023-04-15T00:33:57;4.60;99.90
45807;DHT22;31507;51.494;7.518;2023-04-15T00:36:22;4.70;99.90
45807;DHT22;31507;51.494;7.518;2023-04-15T00:38:48;4.70;99.90
45807;DHT22;31507;51.494;7.518;2023-04-15T00:41:14;4.80;99.90
45807;DHT22;31507;51.494;7.518;2023-04-15T00:43:40;4.90;99.90
45807;DHT22;31507;51.494;7.518;2023-04-15T00:46:06;4.90;99.90
45807;DHT22;31507;51.494;7.518;2023-04-15T00:48:32;4.90;99.90
45807;DHT22;31507;51.494;7.518;2023-04-15T00:50:58;4.90;99.90
45807;DHT22;31507;51.494;7.518;2023-04-15T00:53:23;4.90;99.90
45807;DHT22;31507;51.494;7.518;2023-04-15T00:55:49;4.90;99.90
45807;DHT22;31507;51.494;7.518;2023-04-15T00:58:15;4.90;99.90
45807;DHT22;31507;51.494;7.518;2023-04-15T01:00:42;4.90;99.90
45807;DHT22;31507;51.494;7.518;2023-04-15T01:03:07;4.90;99.90
45807;DHT22;31507;51.494;7.518;2023-04-15T01:05:34;4.90;99.90
45807;DHT22;31507;51.494;7.518;2023-04-15T01:08:01;4.90;99.90
45807;DHT22;31507;51.494;7.518;2023-04-15T01:10:28;4.90;99.90
45807;DHT22;31507;51.494;7.518;2023-04-15T01:12:54;4.80;99.90
45807;DHT22;31507;51.494;7.518;2023-04-15T01:15:19;4.80;99.90
45807;DHT22;31507;51.494;7.518;2023-04-15T01:17:46;4.70;99.90
45807;DHT22;31507;51.494;7.518;2023-04-15T01:20:12;4.60;99.90
45807;DHT22;31507;51.494;7.518;2023-04-15T01:22:38;4.60;99.90
45807;DHT22;31507;51.494;7.518;2023-04-15T01:25:08;4.50;99.90
45807;DHT22;31507;51.494;7.518;2023-04-15T01:27:35;4.40;99.90
45807;DHT22;31507;51.494;7.518;2023-04-15T01:30:03;4.40;99.90
45807;DHT22;31507;51.494;7.518;2023-04-15T01:32:30;4.30;99.90
45807;DHT22;31507;51.494;7.518;2023-04-15T01:34:55;4.30;99.90
45807;DHT22;31507;51.494;7.518;2023-04-15T01:37:21;4.30;99.90
45807;DHT22;31507;51.494;7.518;2023-04-15T01:39:47;4.20;99.90
45807;DHT22;31507;51.494;7.518;2023-04-15T01:42:12;4.10;99.90
45807;DHT22;31507;51.494;7.518;2023-04-15T01:44:38;3.90;99.90
45807;DHT22;31507;51.494;7.518;2023-04-15T01:47:04;3.80;99.90
45807;DHT22;31507;51.494;7.518;2023-04-15T01:49:30;3.70;99.90
45807;DHT22;31507;51.494;7.518;2023-04-15T01:51:55;3.50;99.90
45807;DHT22;31507;51.494;7.518;2023-04-15T01:54:21;3.40;99.90
45807;DHT22;31507;51.494;7.518;2023-04-15T01:56:46;3.30;99.90
45807;DHT22;31507;51.494;7.518;2023-04-15T01:59:12;3.20;99.90
45807;DHT22;31507;51.494;7.518;2023-04-15T02:01:38;3.20;99.90
45807;DHT22;31507;51.494;7.518;2023-04-15T02:04:04;3.20;99.90
45807;DHT22;31507;51.494;7.518;2023-04-15T02:06:29;3.20;99.90
45807;DHT22;31507;51.494;7.518;2023-04-15T02:08:56;3.30;99.90
45807;DHT22;31507;51.494;7.518;2023-04-15T02:11:21;3.30;99.90
45807;DHT22;31507;51.494;7.518;2023-04-15T02:13:47;3.30;99.90
45807;DHT22;31507;51.494;7.518;2023-04-15T02:16:17;3.30;99.90
45807;DHT22;31507;51.494;7.518;2023-04-15T02:18:44;3.30;99.90
45807;DHT22;31507;51.494;7.518;2023-04-15T02:21:11;3.20;99.90
45807;DHT22;31507;51.494;7.518;2023-04-15T02:23:37;3.20;99.90
45807;DHT22;31507;51.494;7.518;2023-04-15T02:26:02;3.20;99.90
45807;DHT22;31507;51.494;7.518;2023-04-15T02:28:28;3.10;99.90
45807;DHT22;31507;51.494;7.518;2023-04-15T02:30:53;3.10;99.90
45807;DHT22;31507;51.494;7.518;2023-04-15T02:33:22;3.10;99.90
45807;DHT22;31507;51.494;7.518;2023-04-15T02:35:47;3.10;99.90
45807;DHT22;31507;51.494;7.518;2023-04-15T02:38:13;3.00;99.90
45807;DHT22;31507;51.494;7.518;2023-04-15T02:40:41;2.90;99.90
45807;DHT22;31507;51.494;7.518;2023-04-15T02:43:06;2.90;99.90
45807;DHT22;31507;51.494;7.518;2023-04-15T02:45:32;2.90;99.90
45807;DHT22;31507;51.494;7.518;2023-04-15T02:47:58;2.90;99.90
45807;DHT22;31507;51.494;7.518;2023-04-15T02:50:23;2.80;99.90
45807;DHT22;31507;51.494;7.518;2023-04-15T02:52:50;2.80;99.90
45807;DHT22;31507;51.494;7.518;2023-04-15T02:55:16;2.80;99.90
45807;DHT22;31507;51.494;7.518;2023-04-15T02:57:42;2.80;99.90
45807;DHT22;31507;51.494;7.518;2023-04-15T03:00:09;2.90;99.90
45807;DHT22;31507;51.494;7.518;2023-04-15T03:02:37;3.00;99.90
45807;DHT22;31507;51.494;7.518;2023-04-15T03:05:03;3.00;99.90
45807;DHT22;31507;51.494;7.518;2023-04-15T03:07:30;3.10;99.90
45807;DHT22;31507;51.494;7.518;2023-04-15T03:09:56;3.20;99.90
45807;DHT22;31507;51.494;7.518;2023-04-15T03:12:22;3.30;99.90
45807;DHT22;31507;51.494;7.518;2023-04-15T03:14:48;3.40;99.90
45807;DHT22;31507;51.494;7.518;2023-04-15T03:17:13;3.40;99.90
45807;DHT22;31507;51.494;7.518;2023-04-15T03:19:39;3.40;99.90
45807;DHT22;31507;51.494;7.518;2023-04-15T03:22:04;3.40;99.90
45807;DHT22;31507;51.494;7.518;2023-04-15T03:24:30;3.50;99.90
45807;DHT22;31507;51.494;7.518;2023-04-15T03:26:56;3.50;99.90
45807;DHT22;31507;51.494;7.518;2023-04-15T03:29:22;3.40;99.90
45807;DHT22;31507;51.494;7.518;2023-04-15T03:31:48;3.40;99.90
45807;DHT22;31507;51.494;7.518;2023-04-15T03:34:13;3.40;99.90
45807;DHT22;31507;51.494;7.518;2023-04-15T03:36:39;3.40;99.90
45807;DHT22;31507;51.494;7.518;2023-04-15T03:39:05;3.40;99.90
45807;DHT22;31507;51.494;7.518;2023-04-15T03:41:30;3.40;99.90
45807;DHT22;31507;51.494;7.518;2023-04-15T03:43:57;3.50;99.90
45807;DHT22;31507;51.494;7.518;2023-04-15T03:46:22;3.50;99.90
45807;DHT22;31507;51.494;7.518;2023-04-15T03:48:48;3.50;99.90
45807;DHT22;31507;51.494;7.518;2023-04-15T03:51:14;3.50;99.90
45807;DHT22;31507;51.494;7.518;2023-04-15T03:53:39;3.50;99.90
45807;DHT22;31507;51.494;7.518;2023-04-15T03:56:05;3.60;99.90
45807;DHT22;31507;51.494;7.518;2023-04-15T03:58:31;3.60;99.90
45807;DHT22;31507;51.494;7.518;2023-04-15T04:00:57;3.50;99.90
45807;DHT22;31507;51.494;7.518;2023-04-15T04:03:22;3.60;99.90
45807;DHT22;31507;51.494;7.518;2023-04-15T04:05:48;3.50;99.90
45807;DHT22;31507;51.494;7.518;2023-04-15T04:08:14;3.50;99.90
45807;DHT22;31507;51.494;7.518;2023-04-15T04:10:40;3.50;99.90
45807;DHT22;31507;51.494;7.518;2023-04-15T04:13:06;3.40;99.90
45807;DHT22;31507;51.494;7.518;2023-04-15T04:15:32;3.40;99.90
45807;DHT22;31507;51.494;7.518;2023-04-15T04:17:58;3.30;99.90
45807;DHT22;31507;51.494;7.518;2023-04-15T04:20:23;3.20;99.90
45807;DHT22;31507;51.494;7.518;2023-04-15T04:22:49;3.10;99.90
45807;DHT22;31507;51.494;7.518;2023-04-15T04:25:15;3.10;99.90
45807;DHT22;31507;51.494;7.518;2023-04-15T04:27:40;3.00;99.90
45807;DHT22;31507;51.494;7.518;2023-04-15T04:30:07;2.90;99.90
45807;DHT22;31507;51.494;7.518;2023-04-15T04:32:32;2.90;99.90
45807;DHT22;31507;51.494;7.518;2023-04-15T04:34:58;2.80;99.90
45807;DHT22;31507;51.494;7.518;2023-04-15T04:37:24;2.80;99.90
45807;DHT22;31507;51.494;7.518;2023-04-15T04:39:50;2.80;99.90
45807;DHT22;31507;51.494;7.518;2023-04-15T04:42:15;2.80;99.90
45807;DHT22;31507;51.494;7.518;2023-04-15T04:44:41;2.80;99.90
45807;DHT22;31507;51.494;7.518;2023-04-15T04:47:07;2.80;99.90
45807;DHT22;31507;51.494;7.518;2023-04-15T04:49:32;2.70;99.90
45807;DHT22;31507;51.494;7.518;2023-04-15T04:51:58;2.70;99.90
45807;DHT22;31507;51.494;7.518;2023-04-15T04:54:24;2.70;99.90
45807;DHT22;31507;51.494;7.518;2023-04-15T04:56:49;2.60;99.90
45807;DHT22;31507;51.494;7.518;2023-04-15T04:59:15;2.60;99.90
45807;DHT22;31507;51.494;7.518;2023-04-15T05:01:41;2.50;99.90
45807;DHT22;31507;51.494;7.518;2023-04-15T05:04:07;2.50;99.90
45807;DHT22;31507;51.494;7.518;2023-04-15T05:06:33;2.50;99.90
45807;DHT22;31507;51.494;7.518;2023-04-15T05:09:01;2.50;99.90
45807;DHT22;31507;51.494;7.518;2023-04-15T05:11:27;2.50;99.90
45807;DHT22;31507;51.494;7.518;2023-04-15T05:13:56;2.50;99.90
45807;DHT22;31507;51.494;7.518;2023-04-15T05:16:22;2.60;99.90
45807;DHT22;31507;51.494;7.518;2023-04-15T05:18:48;2.70;99.90
45807;DHT22;31507;51.494;7.518;2023-04-15T05:21:13;2.70;99.90
45807;DHT22;31507;51.494;7.518;2023-04-15T05:23:39;2.80;99.90
45807;DHT22;31507;51.494;7.518;2023-04-15T05:26:05;2.90;99.90
45807;DHT22;31507;51.494;7.518;2023-04-15T05:28:31;2.90;99.90
45807;DHT22;31507;51.494;7.518;2023-04-15T05:30:56;3.00;99.90
45807;DHT22;31507;51.494;7.518;2023-04-15T05:33:22;3.10;99.90
45807;DHT22;31507;51.494;7.518;2023-04-15T05:35:48;3.10;99.90
45807;DHT22;31507;51.494;7.518;2023-04-15T05:38:13;3.20;99.90
45807;DHT22;31507;51.494;7.518;2023-04-15T05:40:39;3.30;99.90
45807;DHT22;31507;51.494;7.518;2023-04-15T05:43:04;3.30;99.90
45807;DHT22;31507;51.494;7.518;2023-04-15T05:45:30;3.40;99.90
45807;DHT22;31507;51.494;7.518;2023-04-15T05:47:56;3.50;99.90
45807;DHT22;31507;51.494;7.518;2023-04-15T05:50:21;3.60;99.90
45807;DHT22;31507;51.494;7.518;2023-04-15T05:52:47;3.70;99.90
45807;DHT22;31507;51.494;7.518;2023-04-15T05:55:13;3.70;99.90
45807;DHT22;31507;51.494;7.518;2023-04-15T05:57:38;3.80;99.90
45807;DHT22;31507;51.494;7.518;2023-04-15T06:00:05;3.90;99.90
45807;DHT22;31507;51.494;7.518;2023-04-15T06:02:30;4.00;99.90
45807;DHT22;31507;51.494;7.518;2023-04-15T06:04:56;4.10;99.90
45807;DHT22;31507;51.494;7.518;2023-04-15T06:07:22;4.20;99.90
45807;DHT22;31507;51.494;7.518;2023-04-15T06:09:48;4.30;99.90
45807;DHT22;31507;51.494;7.518;2023-04-15T06:12:14;4.40;99.90
45807;DHT22;31507;51.494;7.518;2023-04-15T06:14:41;4.50;99.90
45807;DHT22;31507;51.494;7.518;2023-04-15T06:17:06;4.70;99.90
45807;DHT22;31507;51.494;7.518;2023-04-15T06:19:33;4.80;99.90
45807;DHT22;31507;51.494;7.518;2023-04-15T06:22:01;4.90;99.90
45807;DHT22;31507;51.494;7.518;2023-04-15T06:24:27;5.10;99.90
45807;DHT22;31507;51.494;7.518;2023-04-15T06:26:52;5.20;99.90
45807;DHT22;31507;51.494;7.518;2023-04-15T06:29:18;5.30;99.90
45807;DHT22;31507;51.494;7.518;2023-04-15T06:31:45;5.40;99.90
45807;DHT22;31507;51.494;7.518;2023-04-15T06:34:11;5.50;99.90
45807;DHT22;31507;51.494;7.518;2023-04-15T06:36:36;5.50;99.90
45807;DHT22;31507;51.494;7.518;2023-04-15T06:39:03;5.60;99.90
45807;DHT22;31507;51.494;7.518;2023-04-15T06:41:28;5.70;99.90
45807;DHT22;31507;51.494;7.518;2023-04-15T06:43:54;5.70;99.90
45807;DHT22;31507;51.494;7.518;2023-04-15T06:46:20;5.80;99.90
45807;DHT22;31507;51.494;7.518;2023-04-15T06:48:45;5.80;99.90
45807;DHT22;31507;51.494;7.518;2023-04-15T06:51:11;5.90;99.90
45807;DHT22;31507;51.494;7.518;2023-04-15T06:53:39;6.00;99.90
45807;DHT22;31507;51.494;7.518;2023-04-15T06:56:09;6.10;99.90
45807;DHT22;31507;51.494;7.518;2023-04-15T06:58:35;6.20;99.90
45807;DHT22;31507;51.494;7.518;2023-04-15T07:01:01;6.20;99.90
45807;DHT22;31507;51.494;7.518;2023-04-15T07:03:27;6.30;99.90
45807;DHT22;31507;51.494;7.518;2023-04-15T07:05:53;6.50;99.90
45807;DHT22;31507;51.494;7.518;2023-04-15T07:08:19;6.60;99.90
45807;DHT22;31507;51.494;7.518;2023-04-15T07:10:46;6.70;99.90
45807;DHT22;31507;51.494;7.518;2023-04-15T07:13:12;6.70;99.90
45807;DHT22;31507;51.494;7.518;2023-04-15T07:15:38;6.70;99.90
45807;DHT22;31507;51.494;7.518;2023-04-15T07:18:03;6.80;99.90
45807;DHT22;31507;51.494;7.518;2023-04-15T07:20:29;6.90;99.90
45807;DHT22;31507;51.494;7.518;2023-04-15T07:22:55;6.90;99.90
45807;DHT22;31507;51.494;7.518;2023-04-15T07:25:21;7.00;99.90
45807;DHT22;31507;51.494;7.518;2023-04-15T07:27:46;7.10;99.90
45807;DHT22;31507;51.494;7.518;2023-04-15T07:30:12;7.20;99.90
45807;DHT22;31507;51.494;7.518;2023-04-15T07:32:38;7.20;99.90
45807;DHT22;31507;51.494;7.518;2023-04-15T07:35:04;7.40;99.90
45807;DHT22;31507;51.494;7.518;2023-04-15T07:37:29;7.50;99.90
45807;DHT22;31507;51.494;7.518;2023-04-15T07:39:55;7.60;99.90
45807;DHT22;31507;51.494;7.518;2023-04-15T07:42:21;7.80;99.90
45807;DHT22;31507;51.494;7.518;2023-04-15T07:44:47;7.80;99.90
45807;DHT22;31507;51.494;7.518;2023-04-15T07:47:12;7.90;99.90
45807;DHT22;31507;51.494;7.518;2023-04-15T07:49:38;8.00;99.90
45807;DHT22;31507;51.494;7.518;2023-04-15T07:52:04;8.00;99.90
45807;DHT22;31507;51.494;7.518;2023-04-15T07:54:30;8.00;99.90
45807;DHT22;31507;51.494;7.518;2023-04-15T07:56:55;8.10;99.90
45807;DHT22;31507;51.494;7.518;2023-04-15T07:59:21;8.20;99.90
45807;DHT22;31507;51.494;7.518;2023-04-15T08:01:47;8.20;99.90
45807;DHT22;31507;51.494;7.518;2023-04-15T08:04:13;8.30;99.90
45807;DHT22;31507;51.494;7.518;2023-04-15T08:06:39;8.40;99.90
45807;DHT22;31507;51.494;7.518;2023-04-15T08:09:05;8.60;99.90
45807;DHT22;31507;51.494;7.518;2023-04-15T08:11:31;8.80;99.90
45807;DHT22;31507;51.494;7.518;2023-04-15T08:13:57;9.00;99.90
45807;DHT22;31507;51.494;7.518;2023-04-15T08:16:24;9.00;99.90
45807;DHT22;31507;51.494;7.518;2023-04-15T08:18:54;9.30;99.90
45807;DHT22;31507;51.494;7.518;2023-04-15T08:21:20;9.30;99.90
45807;DHT22;31507;51.494;7.518;2023-04-15T08:23:47;9.40;99.90
45807;DHT22;31507;51.494;7.518;2023-04-15T08:26:14;9.50;99.90
45807;DHT22;31507;51.494;7.518;2023-04-15T08:28:41;9.40;99.90
45807;DHT22;31507;51.494;7.518;2023-04-15T08:31:07;9.40;99.90
45807;DHT22;31507;51.494;7.518;2023-04-15T08:33:33;9.30;99.90
45807;DHT22;31507;51.494;7.518;2023-04-15T08:35:59;9.30;99.90
45807;DHT22;31507;51.494;7.518;2023-04-15T08:38:25;9.10;99.90
45807;DHT22;31507;51.494;7.518;2023-04-15T08:40:50;8.90;99.90
45807;DHT22;31507;51.494;7.518;2023-04-15T08:43:26;8.80;99.90
45807;DHT22;31507;51.494;7.518;2023-04-15T08:45:53;8.80;99.90
45807;DHT22;31507;51.494;7.518;2023-04-15T08:48:20;8.70;99.90
45807;DHT22;31507;51.494;7.518;2023-04-15T08:50:46;8.70;99.90
45807;DHT22;31507;51.494;7.518;2023-04-15T08:53:13;8.70;99.90
45807;DHT22;31507;51.494;7.518;2023-04-15T08:55:42;8.70;99.90
45807;DHT22;31507;51.494;7.518;2023-04-15T08:58:12;8.80;99.90
45807;DHT22;31507;51.494;7.518;2023-04-15T09:00:39;8.90;99.90
45807;DHT22;31507;51.494;7.518;2023-04-15T09:03:07;8.90;99.90
45807;DHT22;31507;51.494;7.518;2023-04-15T09:05:35;8.90;99.90
45807;DHT22;31507;51.494;7.518;2023-04-15T09:08:02;9.00;99.90
45807;DHT22;31507;51.494;7.518;2023-04-15T09:10:28;9.00;99.90
45807;DHT22;31507;51.494;7.518;2023-04-15T09:12:55;9.00;99.90
45807;DHT22;31507;51.494;7.518;2023-04-15T09:15:24;9.00;99.90
45807;DHT22;31507;51.494;7.518;2023-04-15T09:17:50;9.10;99.90
45807;DHT22;31507;51.494;7.518;2023-04-15T09:20:16;9.00;99.90
45807;DHT22;31507;51.494;7.518;2023-04-15T09:22:46;9.00;99.90
45807;DHT22;31507;51.494;7.518;2023-04-15T09:25:25;9.00;99.90
45807;DHT22;31507;51.494;7.518;2023-04-15T09:27:59;9.00;99.90
45807;DHT22;31507;51.494;7.518;2023-04-15T09:30:27;9.00;99.90
45807;DHT22;31507;51.494;7.518;2023-04-15T09:32:57;9.00;99.90
45807;DHT22;31507;51.494;7.518;2023-04-15T09:35:25;8.90;99.90
45807;DHT22;31507;51.494;7.518;2023-04-15T09:37:51;8.90;99.90
45807;DHT22;31507;51.494;7.518;2023-04-15T09:40:36;8.90;99.90
45807;DHT22;31507;51.494;7.518;2023-04-15T09:43:03;8.80;99.90
45807;DHT22;31507;51.494;7.518;2023-04-15T09:45:30;8.70;99.90
45807;DHT22;31507;51.494;7.518;2023-04-15T09:48:13;8.70;99.90
45807;DHT22;31507;51.494;7.518;2023-04-15T09:50:41;8.60;99.90
45807;DHT22;31507;51.494;7.518;2023-04-15T09:53:14;8.70;99.90
45807;DHT22;31507;51.494;7.518;2023-04-15T09:56:03;8.80;99.90
45807;DHT22;31507;51.494;7.518;2023-04-15T09:58:30;8.70;99.90
45807;DHT22;31507;51.494;7.518;2023-04-15T10:00:57;8.70;99.90
45807;DHT22;31507;51.494;7.518;2023-04-15T10:03:31;8.70;99.90
45807;DHT22;31507;51.494;7.518;2023-04-15T10:05:59;8.70;99.90
45807;DHT22;31507;51.494;7.518;2023-04-15T10:08:27;8.70;99.90
45807;DHT22;31507;51.494;7.518;2023-04-15T10:10:53;8.70;99.90
45807;DHT22;31507;51.494;7.518;2023-04-15T10:13:24;8.70;99.90
45807;DHT22;31507;51.494;7.518;2023-04-15T10:18:19;8.60;99.90
45807;DHT22;31507;51.494;7.518;2023-04-15T10:20:47;8.60;99.90
45807;DHT22;31507;51.494;7.518;2023-04-15T10:23:14;8.60;99.90
45807;DHT22;31507;51.494;7.518;2023-04-15T10:25:40;8.60;99.90
45807;DHT22;31507;51.494;7.518;2023-04-15T10:28:06;8.70;99.90
45807;DHT22;31507;51.494;7.518;2023-04-15T10:30:33;8.70;99.90
45807;DHT22;31507;51.494;7.518;2023-04-15T10:33:00;8.70;99.90
45807;DHT22;31507;51.494;7.518;2023-04-15T10:35:31;8.70;99.90
45807;DHT22;31507;51.494;7.518;2023-04-15T10:37:58;8.80;99.90
45807;DHT22;31507;51.494;7.518;2023-04-15T10:40:26;8.80;99.90
45807;DHT22;31507;51.494;7.518;2023-04-15T10:42:59;8.80;99.90
45807;DHT22;31507;51.494;7.518;2023-04-15T10:45:46;8.70;99.90
45807;DHT22;31507;51.494;7.518;2023-04-15T10:48:15;8.80;99.90
45807;DHT22;31507;51.494;7.518;2023-04-15T10:50:59;8.80;99.90
45807;DHT22;31507;51.494;7.518;2023-04-15T10:53:30;8.70;99.90
45807;DHT22;31507;51.494;7.518;2023-04-15T10:55:56;8.60;99.90
45807;DHT22;31507;51.494;7.518;2023-04-15T10:58:24;8.60;99.90
45807;DHT22;31507;51.494;7.518;2023-04-15T11:00:52;8.50;99.90
45807;DHT22;31507;51.494;7.518;2023-04-15T11:03:36;8.60;99.90
45807;DHT22;31507;51.494;7.518;2023-04-15T11:06:04;8.60;99.90
45807;DHT22;31507;51.494;7.518;2023-04-15T11:08:59;8.50;99.90
45807;DHT22;31507;51.494;7.518;2023-04-15T11:12:03;8.50;99.90
45807;DHT22;31507;51.494;7.518;2023-04-15T11:14:32;8.40;99.90
45807;DHT22;31507;51.494;7.518;2023-04-15T11:16:58;8.40;99.90
45807;DHT22;31507;51.494;7.518;2023-04-15T11:19:24;8.50;99.90
45807;DHT22;31507;51.494;7.518;2023-04-15T11:21:50;8.50;99.90
45807;DHT22;31507;51.494;7.518;2023-04-15T11:24:25;8.50;99.90
45807;DHT22;31507;51.494;7.518;2023-04-15T11:26:56;8.50;99.90
45807;DHT22;31507;51.494;7.518;2023-04-15T11:29:30;8.50;99.90
45807;DHT22;31507;51.494;7.518;2023-04-15T11:32:07;8.60;99.90
45807;DHT22;31507;51.494;7.518;2023-04-15T11:34:33;8.60;99.90
45807;DHT22;31507;51.494;7.518;2023-04-15T11:37:03;8.50;99.90
45807;DHT22;31507;51.494;7.518;2023-04-15T11:39:29;8.40;99.90
45807;DHT22;31507;51.494;7.518;2023-04-15T11:41:55;8.30;99.90
45807;DHT22;31507;51.494;7.518;2023-04-15T11:44:20;8.40;99.90
45807;DHT22;31507;51.494;7.518;2023-04-15T11:46:46;8.40;99.90
45807;DHT22;31507;51.494;7.518;2023-04-15T11:49:25;8.40;99.90
45807;DHT22;31507;51.494;7.518;2023-04-15T11:51:51;8.40;99.90
45807;DHT22;31507;51.494;7.518;2023-04-15T11:54:19;8.40;99.90
45807;DHT22;31507;51.494;7.518;2023-04-15T11:56:49;8.40;99.90
45807;DHT22;31507;51.494;7.518;2023-04-15T11:59:15;8.30;99.90
45807;DHT22;31507;51.494;7.518;2023-04-15T12:01:41;8.30;99.90
45807;DHT22;31507;51.494;7.518;2023-04-15T12:04:15;8.40;99.90
45807;DHT22;31507;51.494;7.518;2023-04-15T12:06:43;8.40;99.90
45807;DHT22;31507;51.494;7.518;2023-04-15T12:14:25;8.50;99.90
45807;DHT22;31507;51.494;7.518;2023-04-15T12:16:55;8.60;99.90
45807;DHT22;31507;51.494;7.518;2023-04-15T12:22:14;8.70;99.90
45807;DHT22;31507;51.494;7.518;2023-04-15T12:24:42;8.70;99.90
45807;DHT22;31507;51.494;7.518;2023-04-15T12:27:10;8.70;99.90
45807;DHT22;31507;51.494;7.518;2023-04-15T12:29:37;8.70;99.90
45807;DHT22;31507;51.494;7.518;2023-04-15T12:32:05;8.60;99.90
45807;DHT22;31507;51.494;7.518;2023-04-15T12:34:34;8.60;99.90
45807;DHT22;31507;51.494;7.518;2023-04-15T12:37:01;8.60;99.90
45807;DHT22;31507;51.494;7.518;2023-04-15T12:39:30;8.60;99.90
45807;DHT22;31507;51.494;7.518;2023-04-15T12:41:57;8.50;99.90
45807;DHT22;31507;51.494;7.518;2023-04-15T12:44:23;8.50;99.90
45807;DHT22;31507;51.494;7.518;2023-04-15T12:46:50;8.50;99.90
45807;DHT22;31507;51.494;7.518;2023-04-15T12:49:17;8.50;99.90
45807;DHT22;31507;51.494;7.518;2023-04-15T12:51:48;8.50;99.90
45807;DHT22;31507;51.494;7.518;2023-04-15T12:54:14;8.60;99.90
45807;DHT22;31507;51.494;7.518;2023-04-15T12:56:41;8.60;99.90
45807;DHT22;31507;51.494;7.518;2023-04-15T12:59:06;8.60;99.90
45807;DHT22;31507;51.494;7.518;2023-04-15T13:01:32;8.60;99.90
45807;DHT22;31507;51.494;7.518;2023-04-15T13:03:57;8.60;99.90
45807;DHT22;31507;51.494;7.518;2023-04-15T13:06:23;8.60;99.90
45807;DHT22;31507;51.494;7.518;2023-04-15T13:08:49;8.70;99.90
45807;DHT22;31507;51.494;7.518;2023-04-15T13:11:15;8.70;99.90
45807;DHT22;31507;51.494;7.518;2023-04-15T13:13:42;8.60;99.90
45807;DHT22;31507;51.494;7.518;2023-04-15T13:16:07;8.60;99.90
45807;DHT22;31507;51.494;7.518;2023-04-15T13:18:34;8.60;99.90
45807;DHT22;31507;51.494;7.518;2023-04-15T13:21:00;8.70;99.90
45807;DHT22;31507;51.494;7.518;2023-04-15T13:23:26;8.60;99.90
45807;DHT22;31507;51.494;7.518;2023-04-15T13:25:51;8.60;99.90
45807;DHT22;31507;51.494;7.518;2023-04-15T13:28:17;8.60;99.90
45807;DHT22;31507;51.494;7.518;2023-04-15T13:30:43;8.50;99.90
45807;DHT22;31507;51.494;7.518;2023-04-15T13:33:10;8.50;99.90
45807;DHT22;31507;51.494;7.518;2023-04-15T13:35:36;8.50;99.90
45807;DHT22;31507;51.494;7.518;2023-04-15T13:38:01;8.40;99.90
45807;DHT22;31507;51.494;7.518;2023-04-15T13:40:27;8.40;99.90
45807;DHT22;31507;51.494;7.518;2023-04-15T13:42:53;8.40;99.90
45807;DHT22;31507;51.494;7.518;2023-04-15T13:45:18;8.40;99.90
45807;DHT22;31507;51.494;7.518;2023-04-15T13:47:44;8.40;99.90
45807;DHT22;31507;51.494;7.518;2023-04-15T13:50:10;8.40;99.90
45807;DHT22;31507;51.494;7.518;2023-04-15T13:52:36;8.50;99.90
45807;DHT22;31507;51.494;7.518;2023-04-15T13:55:02;8.40;99.90
45807;DHT22;31507;51.494;7.518;2023-04-15T13:57:28;8.40;99.90
45807;DHT22;31507;51.494;7.518;2023-04-15T13:59:54;8.40;99.90
45807;DHT22;31507;51.494;7.518;2023-04-15T14:02:20;8.40;99.90
45807;DHT22;31507;51.494;7.518;2023-04-15T14:04:47;8.40;99.90
45807;DHT22;31507;51.494;7.518;2023-04-15T14:07:12;8.40;99.90
45807;DHT22;31507;51.494;7.518;2023-04-15T14:09:38;8.40;99.90
45807;DHT22;31507;51.494;7.518;2023-04-15T14:12:04;8.40;99.90
45807;DHT22;31507;51.494;7.518;2023-04-15T14:14:30;8.40;99.90
45807;DHT22;31507;51.494;7.518;2023-04-15T14:16:56;8.40;99.90
45807;DHT22;31507;51.494;7.518;2023-04-15T14:19:22;8.40;99.90
45807;DHT22;31507;51.494;7.518;2023-04-15T14:21:48;8.30;99.90
45807;DHT22;31507;51.494;7.518;2023-04-15T14:24:14;8.30;99.90
45807;DHT22;31507;51.494;7.518;2023-04-15T14:26:39;8.30;99.90
45807;DHT22;31507;51.494;7.518;2023-04-15T14:29:08;8.30;99.90
45807;DHT22;31507;51.494;7.518;2023-04-15T14:31:33;8.30;99.90
45807;DHT22;31507;51.494;7.518;2023-04-15T14:33:59;8.30;99.90
45807;DHT22;31507;51.494;7.518;2023-04-15T14:36:25;8.30;99.90
45807;DHT22;31507;51.494;7.518;2023-04-15T14:38:51;8.30;99.90
45807;DHT22;31507;51.494;7.518;2023-04-15T14:41:17;8.30;99.90
45807;DHT22;31507;51.494;7.518;2023-04-15T14:43:42;8.30;99.90
45807;DHT22;31507;51.494;7.518;2023-04-15T14:46:09;8.30;99.90
45807;DHT22;31507;51.494;7.518;2023-04-15T14:48:35;8.30;99.90
45807;DHT22;31507;51.494;7.518;2023-04-15T14:51:03;8.30;99.90
45807;DHT22;31507;51.494;7.518;2023-04-15T14:53:29;8.30;99.90
45807;DHT22;31507;51.494;7.518;2023-04-15T14:55:57;8.30;99.90
45807;DHT22;31507;51.494;7.518;2023-04-15T14:58:23;8.30;99.90
45807;DHT22;31507;51.494;7.518;2023-04-15T15:00:48;8.30;99.90
45807;DHT22;31507;51.494;7.518;2023-04-15T15:03:14;8.30;99.90
45807;DHT22;31507;51.494;7.518;2023-04-15T15:05:44;8.20;99.90
45807;DHT22;31507;51.494;7.518;2023-04-15T15:08:11;8.20;99.90
45807;DHT22;31507;51.494;7.518;2023-04-15T15:10:37;8.20;99.90
45807;DHT22;31507;51.494;7.518;2023-04-15T15:13:05;8.20;99.90
45807;DHT22;31507;51.494;7.518;2023-04-15T15:15:31;8.10;99.90
45807;DHT22;31507;51.494;7.518;2023-04-15T15:17:57;8.10;99.90
45807;DHT22;31507;51.494;7.518;2023-04-15T15:20:23;8.00;99.90
45807;DHT22;31507;51.494;7.518;2023-04-15T15:22:49;8.00;99.90
45807;DHT22;31507;51.494;7.518;2023-04-15T15:25:15;7.90;99.90
45807;DHT22;31507;51.494;7.518;2023-04-15T15:27:41;7.90;99.90
45807;DHT22;31507;51.494;7.518;2023-04-15T15:30:07;7.90;99.90
45807;DHT22;31507;51.494;7.518;2023-04-15T15:32:33;7.90;99.90
45807;DHT22;31507;51.494;7.518;2023-04-15T15:34:59;7.80;99.90
45807;DHT22;31507;51.494;7.518;2023-04-15T15:37:25;7.80;99.90
45807;DHT22;31507;51.494;7.518;2023-04-15T15:39:51;7.80;99.90
45807;DHT22;31507;51.494;7.518;2023-04-15T15:42:21;7.70;99.90
45807;DHT22;31507;51.494;7.518;2023-04-15T15:44:47;7.70;99.90
45807;DHT22;31507;51.494;7.518;2023-04-15T15:47:15;7.70;99.90
45807;DHT22;31507;51.494;7.518;2023-04-15T15:49:41;7.60;99.90
45807;DHT22;31507;51.494;7.518;2023-04-15T15:52:06;7.60;99.90
45807;DHT22;31507;51.494;7.518;2023-04-15T15:54:33;7.60;99.90